createdAt,value
2023-04-18T00:00:12.085Z,0.75
2023-04-18T00:01:16.795Z,1.50
2023-04-18T00:02:21.647Z,1.50
2023-04-18T00:03:27.246Z,1.00
2023-04-18T00:04:32.255Z,1.00
2023-04-18T00:05:36.882Z,1.50
2023-04-18T00:06:41.500Z,2.00
2023-04-18T00:07:45.808Z,1.00
2023-04-18T00:08:50.323Z,1.00
2023-04-18T00:09:55.147Z,1.50
2023-04-18T00:10:59.549Z,2.00
2023-04-18T00:12:03.882Z,1.50
2023-04-18T00:13:08.367Z,1.00
2023-04-18T00:14:13.677Z,1.00
2023-04-18T00:15:18.541Z,0.25
2023-04-18T00:16:23.059Z,0.00
2023-04-18T00:17:27.494Z,0.50
2023-04-18T00:18:32.400Z,0.00
2023-04-18T00:19:37.392Z,1.00
2023-04-18T00:20:41.807Z,1.25
2023-04-18T00:21:46.959Z,1.25
2023-04-18T00:22:51.451Z,1.00
2023-04-18T00:23:56.067Z,1.00
2023-04-18T00:25:01.188Z,1.00
2023-04-18T00:26:06.319Z,0.50
2023-04-18T00:27:11.029Z,0.50
2023-04-18T00:28:15.758Z,0.25
2023-04-18T00:29:19.958Z,1.00
2023-04-18T00:30:24.298Z,0.50
2023-04-18T00:31:28.628Z,0.25
2023-04-18T00:32:33.137Z,0.50
2023-04-18T00:33:37.645Z,0.50
2023-04-18T00:34:42.010Z,1.50
2023-04-18T00:35:46.317Z,0.50
2023-04-18T00:36:50.836Z,1.00
2023-04-18T00:37:55.268Z,0.50
2023-04-18T00:38:59.654Z,0.25
2023-04-18T00:40:04.172Z,0.75
2023-04-18T00:41:08.689Z,1.00
2023-04-18T00:42:13.434Z,1.00
2023-04-18T00:43:18.017Z,1.00
2023-04-18T00:44:22.217Z,0.50
2023-04-18T00:45:26.849Z,0.50
2023-04-18T00:46:31.800Z,0.00
2023-04-18T00:47:36.191Z,0.75
2023-04-18T00:48:40.491Z,0.50
2023-04-18T00:49:44.579Z,0.25
2023-04-18T00:50:48.915Z,1.00
2023-04-18T00:51:53.095Z,0.00
2023-04-18T00:52:57.204Z,0.00
2023-04-18T00:54:01.608Z,0.50
2023-04-18T00:55:05.716Z,0.50
2023-04-18T00:56:09.820Z,1.00
2023-04-18T00:57:14.150Z,0.50
2023-04-18T00:58:18.331Z,0.00
2023-04-18T00:59:22.843Z,0.00
2023-04-18T01:00:26.851Z,0.00
2023-04-18T01:01:31.518Z,0.50
2023-04-18T01:02:35.752Z,0.25
2023-04-18T01:03:40.184Z,0.25
2023-04-18T01:04:44.483Z,0.50
2023-04-18T01:05:48.693Z,1.00
2023-04-18T01:06:52.797Z,1.00
2023-04-18T01:07:56.901Z,0.50
2023-04-18T01:09:02.153Z,1.00
2023-04-18T01:10:06.417Z,0.50
2023-04-18T01:11:10.949Z,0.50
2023-04-18T01:12:15.569Z,0.00
2023-04-18T01:13:19.992Z,0.00
2023-04-18T01:14:24.498Z,0.50
2023-04-18T01:15:28.897Z,0.00
2023-04-18T01:16:33.488Z,0.50
2023-04-18T01:17:37.847Z,1.00
2023-04-18T01:18:42.758Z,1.00
2023-04-18T01:19:46.956Z,0.00
2023-04-18T01:20:51.364Z,0.50
2023-04-18T01:21:55.775Z,0.50
2023-04-18T01:23:00.290Z,0.00
2023-04-18T01:24:05.116Z,0.00
2023-04-18T01:25:09.622Z,0.75
2023-04-18T01:26:14.150Z,1.00
2023-04-18T01:27:18.648Z,0.50
2023-04-18T01:28:23.016Z,1.00
2023-04-18T01:29:27.173Z,0.50
2023-04-18T01:30:31.594Z,1.00
2023-04-18T01:31:36.340Z,0.75
2023-04-18T01:32:40.784Z,0.50
2023-04-18T01:33:45.318Z,0.50
2023-04-18T01:34:49.842Z,0.50
2023-04-18T01:35:54.343Z,0.00
2023-04-18T01:36:59.071Z,0.00
2023-04-18T01:38:03.671Z,0.00
2023-04-18T01:39:08.053Z,0.00
2023-04-18T01:40:12.518Z,0.50
2023-04-18T01:41:16.906Z,1.00
2023-04-18T01:42:21.337Z,1.00
2023-04-18T01:43:26.246Z,1.00
2023-04-18T01:44:30.455Z,0.00
2023-04-18T01:45:34.912Z,0.50
2023-04-18T01:46:39.491Z,1.00
2023-04-18T01:47:44.643Z,0.00
2023-04-18T01:48:49.058Z,0.00
2023-04-18T01:49:54.837Z,0.00
2023-04-18T01:50:58.516Z,0.25
2023-04-18T01:52:02.867Z,1.00
2023-04-18T01:53:07.034Z,1.00
2023-04-18T01:54:11.452Z,1.00
2023-04-18T01:55:15.796Z,1.00
2023-04-18T01:56:20.168Z,0.50
2023-04-18T01:57:24.395Z,0.25
2023-04-18T01:58:29.111Z,0.00
2023-04-18T01:59:33.215Z,1.00
2023-04-18T02:00:37.761Z,1.00
2023-04-18T02:01:42.048Z,1.00
2023-04-18T02:02:46.422Z,0.00
2023-04-18T02:03:51.586Z,0.00
2023-04-18T02:04:55.813Z,0.50
2023-04-18T02:05:59.513Z,0.00
2023-04-18T02:07:05.535Z,0.00
2023-04-18T02:08:19.548Z,0.00
2023-04-18T02:09:24.458Z,0.00
2023-04-18T02:10:28.795Z,0.00
2023-04-18T02:11:33.012Z,0.00
2023-04-18T02:12:37.206Z,1.00
2023-04-18T02:13:41.587Z,1.00
2023-04-18T02:14:46.256Z,0.50
2023-04-18T02:15:50.978Z,0.25
2023-04-18T02:16:55.606Z,0.50
2023-04-18T02:18:00.049Z,0.75
2023-04-18T02:19:04.076Z,0.50
2023-04-18T02:20:08.488Z,0.00
2023-04-18T02:21:12.935Z,0.50
2023-04-18T02:22:17.310Z,0.50
2023-04-18T02:23:21.651Z,0.50
2023-04-18T02:24:25.926Z,0.50
2023-04-18T02:25:30.439Z,0.25
2023-04-18T02:26:35.078Z,0.50
2023-04-18T02:27:39.469Z,0.00
2023-04-18T02:28:43.983Z,1.00
2023-04-18T02:29:48.288Z,1.00
2023-04-18T02:30:53.328Z,0.00
2023-04-18T02:31:57.773Z,1.00
2023-04-18T02:33:02.067Z,1.50
2023-04-18T02:34:06.336Z,0.50
2023-04-18T02:35:10.672Z,0.00
2023-04-18T02:36:15.084Z,0.75
2023-04-18T02:37:19.470Z,0.25
2023-04-18T02:38:23.466Z,0.00
2023-04-18T02:39:28.203Z,1.00
2023-04-18T02:40:32.307Z,0.50
2023-04-18T02:41:37.032Z,0.00
2023-04-18T02:42:41.596Z,1.00
2023-04-18T02:43:45.938Z,1.00
2023-04-18T02:44:50.657Z,0.25
2023-04-18T02:45:55.197Z,0.75
2023-04-18T02:46:59.369Z,1.00
2023-04-18T02:48:03.739Z,0.50
2023-04-18T02:49:08.011Z,0.50
2023-04-18T02:50:12.309Z,0.00
2023-04-18T02:51:16.618Z,0.00
2023-04-18T02:52:20.805Z,0.00
2023-04-18T02:53:25.011Z,0.00
2023-04-18T02:54:29.216Z,0.00
2023-04-18T02:55:33.130Z,0.00
2023-04-18T02:56:37.327Z,0.00
2023-04-18T02:57:41.530Z,1.00
2023-04-18T02:58:45.848Z,1.00
2023-04-18T02:59:49.949Z,0.50
2023-04-18T03:00:54.046Z,0.50
2023-04-18T03:01:58.213Z,0.50
2023-04-18T03:03:02.493Z,1.00
2023-04-18T03:04:06.770Z,1.00
2023-04-18T03:05:11.517Z,0.50
2023-04-18T03:06:15.961Z,1.25
2023-04-18T03:07:20.103Z,0.50
2023-04-18T03:08:24.517Z,1.00
2023-04-18T03:09:28.823Z,1.00
2023-04-18T03:10:32.927Z,1.50
2023-04-18T03:11:37.129Z,1.00
2023-04-18T03:12:41.548Z,0.25
2023-04-18T03:13:45.752Z,0.50
2023-04-18T03:14:50.159Z,0.75
2023-04-18T03:15:54.281Z,0.00
2023-04-18T03:16:58.675Z,1.00
2023-04-18T03:18:03.338Z,0.75
2023-04-18T03:19:07.906Z,1.00
2023-04-18T03:20:12.616Z,0.00
2023-04-18T03:21:16.937Z,0.00
2023-04-18T03:22:21.045Z,0.50
2023-04-18T03:23:25.643Z,0.00
2023-04-18T03:24:30.176Z,0.00
2023-04-18T03:25:34.568Z,0.00
2023-04-18T03:26:38.533Z,0.00
2023-04-18T03:27:42.685Z,0.50
2023-04-18T03:28:46.982Z,0.25
2023-04-18T03:29:51.809Z,0.50
2023-04-18T03:30:56.200Z,0.50
2023-04-18T03:32:00.217Z,0.75
2023-04-18T03:33:04.434Z,0.50
2023-04-18T03:34:08.775Z,1.00
2023-04-18T03:35:13.146Z,1.25
2023-04-18T03:36:17.550Z,0.50
2023-04-18T03:37:21.858Z,1.00
2023-04-18T03:38:26.065Z,0.75
2023-04-18T03:39:30.033Z,0.00
2023-04-18T03:40:34.473Z,0.50
2023-04-18T03:41:39.002Z,0.50
2023-04-18T03:42:43.301Z,0.50
2023-04-18T03:43:47.468Z,0.50
2023-04-18T03:44:52.119Z,0.50
2023-04-18T03:45:56.365Z,0.50
2023-04-18T03:47:00.263Z,0.25
2023-04-18T03:48:04.707Z,1.00
2023-04-18T03:49:09.766Z,1.00
2023-04-18T03:50:13.989Z,1.00
2023-04-18T03:51:18.292Z,0.50
2023-04-18T03:52:22.610Z,1.00
2023-04-18T03:53:27.118Z,0.50
2023-04-18T03:54:31.524Z,0.00
2023-04-18T03:55:35.918Z,1.25
2023-04-18T03:56:40.331Z,0.50
2023-04-18T03:57:44.414Z,0.50
2023-04-18T03:58:51.717Z,0.00
2023-04-18T03:59:55.919Z,0.00
2023-04-18T04:01:00.139Z,0.00
2023-04-18T04:02:04.524Z,0.00
2023-04-18T04:03:08.883Z,0.00
2023-04-18T04:04:13.370Z,0.00
2023-04-18T04:05:17.702Z,0.75
2023-04-18T04:06:21.881Z,1.00
2023-04-18T04:07:28.641Z,0.25
2023-04-18T04:08:33.046Z,0.50
2023-04-18T04:09:37.466Z,0.50
2023-04-18T04:10:41.661Z,0.25
2023-04-18T04:11:45.969Z,0.00
2023-04-18T04:12:50.178Z,0.00
2023-04-18T04:13:54.667Z,0.00
2023-04-18T04:14:58.999Z,0.00
2023-04-18T04:16:03.581Z,0.00
2023-04-18T04:17:07.934Z,0.00
2023-04-18T04:18:12.440Z,0.25
2023-04-18T04:19:16.846Z,0.50
2023-04-18T04:20:21.057Z,0.00
2023-04-18T04:21:25.262Z,0.00
2023-04-18T04:22:30.087Z,0.00
2023-04-18T04:23:34.489Z,0.00
2023-04-18T04:24:38.721Z,0.50
2023-04-18T04:25:43.005Z,1.00
2023-04-18T04:26:47.315Z,0.00
2023-04-18T04:27:51.536Z,0.00
2023-04-18T04:28:56.142Z,0.00
2023-04-18T04:30:00.650Z,0.25
2023-04-18T04:31:05.059Z,0.00
2023-04-18T04:32:09.615Z,0.00
2023-04-18T04:33:20.134Z,0.50
2023-04-18T04:34:24.535Z,0.50
2023-04-18T04:35:29.066Z,0.00
2023-04-18T04:36:33.151Z,0.00
2023-04-18T04:37:37.677Z,0.50
2023-04-18T04:38:42.594Z,0.00
2023-04-18T04:39:47.425Z,0.00
2023-04-18T04:40:52.032Z,0.00
2023-04-18T04:41:57.473Z,0.00
2023-04-18T04:43:01.894Z,0.00
2023-04-18T04:44:06.070Z,0.00
2023-04-18T04:45:10.180Z,0.00
2023-04-18T04:46:14.584Z,0.00
2023-04-18T04:47:18.703Z,0.50
2023-04-18T04:48:22.798Z,0.00
2023-04-18T04:49:27.515Z,0.00
2023-04-18T04:50:32.132Z,0.00
2023-04-18T04:51:36.540Z,0.00
2023-04-18T04:52:40.742Z,0.50
2023-04-18T04:53:45.363Z,1.00
2023-04-18T04:54:49.563Z,0.50
2023-04-18T04:55:54.278Z,0.50
2023-04-18T04:56:58.793Z,1.00
2023-04-18T04:58:03.509Z,1.00
2023-04-18T04:59:08.348Z,1.00
2023-04-18T05:00:12.640Z,0.50
2023-04-18T05:01:17.096Z,0.25
2023-04-18T05:02:21.659Z,0.00
2023-04-18T05:03:25.907Z,0.00
2023-04-18T05:04:30.266Z,1.00
2023-04-18T05:05:34.593Z,0.00
2023-04-18T05:06:40.323Z,0.50
2023-04-18T05:07:45.163Z,1.00
2023-04-18T05:08:49.774Z,1.00
2023-04-18T05:09:54.512Z,0.50
2023-04-18T05:10:58.712Z,1.00
2023-04-18T05:12:02.804Z,0.00
2023-04-18T05:13:07.412Z,0.00
2023-04-18T05:14:12.104Z,0.00
2023-04-18T05:15:16.745Z,0.50
2023-04-18T05:16:21.507Z,0.25
2023-04-18T05:17:25.945Z,0.50
2023-04-18T05:18:30.197Z,0.50
2023-04-18T05:19:35.311Z,0.25
2023-04-18T05:20:39.955Z,1.00
2023-04-18T05:21:45.669Z,1.00
2023-04-18T05:22:57.757Z,0.50
2023-04-18T05:24:01.698Z,0.00
2023-04-18T05:25:06.182Z,0.00
2023-04-18T05:26:11.096Z,0.25
2023-04-18T05:27:17.209Z,0.25
2023-04-18T05:28:21.964Z,0.50
2023-04-18T05:29:26.373Z,0.00
2023-04-18T05:30:30.886Z,0.00
2023-04-18T05:31:35.538Z,0.50
2023-04-18T05:32:40.257Z,0.00
2023-04-18T05:33:44.325Z,0.00
2023-04-18T05:34:49.145Z,0.25
2023-04-18T05:35:53.450Z,0.50
2023-04-18T05:36:57.961Z,0.50
2023-04-18T05:38:02.581Z,0.00
2023-04-18T05:39:06.705Z,0.50
2023-04-18T05:40:11.538Z,1.00
2023-04-18T05:41:15.810Z,0.50
2023-04-18T05:42:20.138Z,1.00
2023-04-18T05:43:25.046Z,0.00
2023-04-18T05:44:29.252Z,0.50
2023-04-18T05:45:33.974Z,0.50
2023-04-18T05:46:38.185Z,0.50
2023-04-18T05:47:48.072Z,0.25
2023-04-18T05:48:52.027Z,0.00
2023-04-18T05:49:56.012Z,0.25
2023-04-18T05:51:00.528Z,0.50
2023-04-18T05:52:05.146Z,1.00
2023-04-18T05:53:09.454Z,1.00
2023-04-18T05:54:16.157Z,0.50
2023-04-18T05:55:20.740Z,0.00
2023-04-18T05:56:25.358Z,0.50
2023-04-18T05:57:30.381Z,0.00
2023-04-18T05:58:34.793Z,0.50
2023-04-18T05:59:39.307Z,0.00
2023-04-18T06:00:43.612Z,0.75
2023-04-18T06:01:48.628Z,0.00
2023-04-18T06:02:52.950Z,0.00
2023-04-18T06:03:58.051Z,0.00
2023-04-18T06:05:03.188Z,0.50
2023-04-18T06:06:07.405Z,0.00
2023-04-18T06:07:11.804Z,0.00
2023-04-18T06:08:16.646Z,0.00
2023-04-18T06:09:20.835Z,0.00
2023-04-18T06:10:25.551Z,0.00
2023-04-18T06:11:30.381Z,0.00
2023-04-18T06:12:35.398Z,0.00
2023-04-18T06:13:39.807Z,0.00
2023-04-18T06:14:44.114Z,1.00
2023-04-18T06:15:48.461Z,0.50
2023-04-18T06:16:52.952Z,1.00
2023-04-18T06:17:57.385Z,1.00
2023-04-18T06:19:01.569Z,0.25
2023-04-18T06:20:05.869Z,0.00
2023-04-18T06:21:10.291Z,0.00
2023-04-18T06:22:14.790Z,0.00
2023-04-18T06:23:18.996Z,0.00
2023-04-18T06:24:23.505Z,0.00
2023-04-18T06:25:27.832Z,0.00
2023-04-18T06:26:33.161Z,0.50
2023-04-18T06:27:37.453Z,0.00
2023-04-18T06:28:41.582Z,0.00
2023-04-18T06:29:46.180Z,0.00
2023-04-18T06:30:50.584Z,0.00
2023-04-18T06:31:54.558Z,0.00
2023-04-18T06:32:59.550Z,0.00
2023-04-18T06:34:03.726Z,0.00
2023-04-18T06:35:08.448Z,0.00
2023-04-18T06:36:12.656Z,0.00
2023-04-18T06:37:17.353Z,0.00
2023-04-18T06:38:21.662Z,0.00
2023-04-18T06:39:26.084Z,0.50
2023-04-18T06:40:30.575Z,0.50
2023-04-18T06:41:34.798Z,0.50
2023-04-18T06:42:39.004Z,0.75
2023-04-18T06:43:52.017Z,0.50
2023-04-18T06:44:49.053Z,0.50
2023-04-18T06:45:53.914Z,0.00
2023-04-18T06:46:58.288Z,0.50
2023-04-18T06:48:02.635Z,0.25
2023-04-18T06:49:08.405Z,0.50
2023-04-18T06:50:12.536Z,0.50
2023-04-18T06:51:17.463Z,0.00
2023-04-18T06:52:21.764Z,0.00
2023-04-18T06:53:26.072Z,0.00
2023-04-18T06:54:30.912Z,0.00
2023-04-18T06:55:35.418Z,0.00
2023-04-18T06:56:40.126Z,0.00
2023-04-18T06:57:44.636Z,0.50
2023-04-18T06:58:48.992Z,0.50
2023-04-18T06:59:59.142Z,0.00
2023-04-18T07:01:03.477Z,0.00
2023-04-18T07:02:08.053Z,0.50
2023-04-18T07:03:13.617Z,1.00
2023-04-18T07:04:18.678Z,1.00
2023-04-18T07:05:24.849Z,1.00
2023-04-18T07:06:29.474Z,0.50
2023-04-18T07:07:33.865Z,0.00
2023-04-18T07:08:37.864Z,0.50
2023-04-18T07:09:42.193Z,0.75
2023-04-18T07:10:46.798Z,0.00
2023-04-18T07:11:51.831Z,0.50
2023-04-18T07:12:56.127Z,1.00
2023-04-18T07:14:00.422Z,0.50
2023-04-18T07:15:07.296Z,0.00
2023-04-18T07:16:15.317Z,0.50
2023-04-18T07:17:19.820Z,1.00
2023-04-18T07:18:36.786Z,0.00
2023-04-18T07:19:29.548Z,0.50
2023-04-18T07:20:33.884Z,0.00
2023-04-18T07:21:38.156Z,0.00
2023-04-18T07:22:42.269Z,0.00
2023-04-18T07:23:46.362Z,0.50
2023-04-18T07:24:50.566Z,0.25
2023-04-18T07:25:58.437Z,0.00
2023-04-18T07:27:05.433Z,0.75
2023-04-18T07:28:10.045Z,1.75
2023-04-18T07:29:14.256Z,1.00
2023-04-18T07:30:18.268Z,1.00
2023-04-18T07:31:22.485Z,1.00
2023-04-18T07:32:26.983Z,0.50
2023-04-18T07:33:33.267Z,1.00
2023-04-18T07:34:37.448Z,0.75
2023-04-18T07:35:41.647Z,0.50
2023-04-18T07:36:51.508Z,1.00
2023-04-18T07:38:00.477Z,0.75
2023-04-18T07:39:06.006Z,0.00
2023-04-18T07:40:10.651Z,0.50
2023-04-18T07:41:14.879Z,1.00
2023-04-18T07:42:18.979Z,0.50
2023-04-18T07:43:23.165Z,1.00
2023-04-18T07:44:27.487Z,0.00
2023-04-18T07:45:32.018Z,1.00
2023-04-18T07:46:36.572Z,0.50
2023-04-18T07:47:43.118Z,0.75
2023-04-18T07:48:47.578Z,0.75
2023-04-18T07:49:51.911Z,1.00
2023-04-18T07:50:56.202Z,1.25
2023-04-18T07:52:02.123Z,1.00
2023-04-18T07:53:05.934Z,1.00
2023-04-18T07:54:10.464Z,0.50
2023-04-18T07:55:17.519Z,0.25
2023-04-18T07:56:22.339Z,1.00
2023-04-18T07:57:26.652Z,1.00
2023-04-18T07:58:36.921Z,1.00
2023-04-18T07:59:42.433Z,1.00
2023-04-18T08:00:47.364Z,1.50
2023-04-18T08:01:55.913Z,1.00
2023-04-18T08:03:00.000Z,0.50
2023-04-18T08:04:04.540Z,0.50
2023-04-18T08:05:11.568Z,1.00
2023-04-18T08:06:18.437Z,1.50
2023-04-18T08:07:22.626Z,2.50
2023-04-18T08:08:26.948Z,1.00
2023-04-18T08:09:31.287Z,0.50
2023-04-18T08:10:36.486Z,1.25
2023-04-18T08:11:40.683Z,1.00
2023-04-18T08:12:45.093Z,1.75
2023-04-18T08:13:49.410Z,1.50
2023-04-18T08:14:53.619Z,1.00
2023-04-18T08:15:58.631Z,1.75
2023-04-18T08:17:05.162Z,2.00
2023-04-18T08:18:11.668Z,1.50
2023-04-18T08:19:16.192Z,2.00
2023-04-18T08:20:21.197Z,0.50
2023-04-18T08:21:25.810Z,1.00
2023-04-18T08:22:30.143Z,0.50
2023-04-18T08:23:34.445Z,0.50
2023-04-18T08:24:38.955Z,1.00
2023-04-18T08:25:43.257Z,1.00
2023-04-18T08:26:49.608Z,0.75
2023-04-18T08:27:56.157Z,1.00
2023-04-18T08:29:01.803Z,0.75
2023-04-18T08:30:06.448Z,0.50
2023-04-18T08:31:21.893Z,1.00
2023-04-18T08:32:26.398Z,0.50
2023-04-18T08:33:30.955Z,0.75
2023-04-18T08:34:35.016Z,0.50
2023-04-18T08:35:39.330Z,0.75
2023-04-18T08:36:43.532Z,1.50
2023-04-18T08:37:47.740Z,1.75
2023-04-18T08:38:51.946Z,1.00
2023-04-18T08:39:56.151Z,2.00
2023-04-18T08:41:00.464Z,2.00
2023-04-18T08:42:04.862Z,1.50
2023-04-18T08:43:11.220Z,1.00
2023-04-18T08:44:15.739Z,1.00
2023-04-18T08:45:20.359Z,1.00
2023-04-18T08:46:25.230Z,1.75
2023-04-18T08:47:29.833Z,5.50
2023-04-18T08:48:34.196Z,4.50
2023-04-18T08:49:38.396Z,2.00
2023-04-18T08:50:43.010Z,1.00
2023-04-18T08:51:47.624Z,1.00
2023-04-18T08:52:51.833Z,1.50
2023-04-18T08:53:56.664Z,1.00
2023-04-18T08:55:01.073Z,1.00
2023-04-18T08:56:05.170Z,2.25
2023-04-18T08:57:09.278Z,1.50
2023-04-18T08:58:15.192Z,0.00
2023-04-18T08:59:19.729Z,1.00
2023-04-18T09:00:23.852Z,1.75
2023-04-18T09:01:28.186Z,2.00
2023-04-18T09:02:32.316Z,2.00
2023-04-18T09:03:36.404Z,2.00
2023-04-18T09:04:40.554Z,1.50
2023-04-18T09:05:44.966Z,2.00
2023-04-18T09:06:49.480Z,2.00
2023-04-18T09:07:53.993Z,2.00
2023-04-18T09:08:58.205Z,2.00
2023-04-18T09:10:02.709Z,2.00
2023-04-18T09:11:06.822Z,1.50
2023-04-18T09:12:10.919Z,2.00
2023-04-18T09:13:15.324Z,2.50
2023-04-18T09:14:19.314Z,2.25
2023-04-18T09:15:24.246Z,2.50
2023-04-18T09:16:28.697Z,2.00
2023-04-18T09:17:32.775Z,3.00
2023-04-18T09:18:36.888Z,3.20
2023-04-18T09:19:40.869Z,2.00
2023-04-18T09:20:45.175Z,1.25
2023-04-18T09:21:49.505Z,1.50
2023-04-18T09:22:53.496Z,1.50
2023-04-18T09:23:57.598Z,1.00
2023-04-18T09:25:01.817Z,1.00
2023-04-18T09:26:05.742Z,1.00
2023-04-18T09:27:10.213Z,0.50
2023-04-18T09:28:14.722Z,1.00
2023-04-18T09:29:19.244Z,1.00
2023-04-18T09:30:26.575Z,0.50
2023-04-18T09:31:30.929Z,2.00
2023-04-18T09:32:35.261Z,3.00
2023-04-18T09:33:40.369Z,2.00
2023-04-18T09:34:44.778Z,2.00
2023-04-18T09:35:49.109Z,1.00
2023-04-18T09:36:53.368Z,0.50
2023-04-18T09:37:57.718Z,0.75
2023-04-18T09:39:02.138Z,1.50
2023-04-18T09:40:06.257Z,1.00
2023-04-18T09:41:10.738Z,1.25
2023-04-18T09:42:15.244Z,0.75
2023-04-18T09:43:19.970Z,1.50
2023-04-18T09:44:24.681Z,1.50
2023-04-18T09:45:28.991Z,1.00
2023-04-18T09:46:34.221Z,2.50
2023-04-18T09:47:38.880Z,2.25
2023-04-18T09:48:46.318Z,1.75
2023-04-18T09:49:50.207Z,4.00
2023-04-18T09:50:54.249Z,4.00
2023-04-18T09:51:58.714Z,3.00
2023-04-18T09:53:02.937Z,3.50
2023-04-18T09:54:07.457Z,3.00
2023-04-18T09:55:11.750Z,3.00
2023-04-18T09:56:22.156Z,3.50
2023-04-18T09:57:26.319Z,2.50
2023-04-18T09:58:31.558Z,3.00
2023-04-18T09:59:35.745Z,2.00
2023-04-18T10:00:39.635Z,1.75
2023-04-18T10:01:44.396Z,3.00
2023-04-18T10:02:48.466Z,3.00
2023-04-18T10:03:54.994Z,3.00
2023-04-18T10:04:59.035Z,3.00
2023-04-18T10:06:04.251Z,3.00
2023-04-18T10:07:08.459Z,3.00
2023-04-18T10:08:12.889Z,3.50
2023-04-18T10:09:17.054Z,2.50
2023-04-18T10:10:21.279Z,2.50
2023-04-18T10:11:25.278Z,2.50
2023-04-18T10:12:29.590Z,2.00
2023-04-18T10:13:35.429Z,2.00
2023-04-18T10:14:39.949Z,2.50
2023-04-18T10:15:44.478Z,3.50
2023-04-18T10:16:50.469Z,3.50
2023-04-18T10:18:03.348Z,3.00
2023-04-18T10:18:59.739Z,2.50
2023-04-18T10:20:04.150Z,2.50
2023-04-18T10:21:08.871Z,2.50
2023-04-18T10:22:12.980Z,3.50
2023-04-18T10:23:17.396Z,3.33
2023-04-18T10:24:22.101Z,2.00
2023-04-18T10:25:26.609Z,1.50
2023-04-18T10:26:31.334Z,3.00
2023-04-18T10:27:35.951Z,2.00
2023-04-18T10:28:40.151Z,2.50
2023-04-18T10:29:44.700Z,2.00
2023-04-18T10:30:48.676Z,2.00
2023-04-18T10:31:55.747Z,1.50
2023-04-18T10:32:59.884Z,1.00
2023-04-18T10:34:06.208Z,2.00
2023-04-18T10:35:09.516Z,1.50
2023-04-18T10:36:13.807Z,1.00
2023-04-18T10:37:18.103Z,2.00
2023-04-18T10:38:24.516Z,2.00
2023-04-18T10:39:28.481Z,2.00
2023-04-18T10:40:32.572Z,1.50
2023-04-18T10:41:36.869Z,2.00
2023-04-18T10:42:41.087Z,2.00
2023-04-18T10:43:45.204Z,2.00
2023-04-18T10:44:49.393Z,2.50
2023-04-18T10:45:53.505Z,1.50
2023-04-18T10:46:57.744Z,2.25
2023-04-18T10:48:04.114Z,1.50
2023-04-18T10:49:08.362Z,1.25
2023-04-18T10:50:12.540Z,1.50
2023-04-18T10:51:20.359Z,2.50
2023-04-18T10:52:24.494Z,3.50
2023-04-18T10:53:28.779Z,3.25
2023-04-18T10:54:33.192Z,3.00
2023-04-18T10:55:37.492Z,2.25
2023-04-18T10:56:41.943Z,3.00
2023-04-18T10:57:46.108Z,2.25
2023-04-18T10:58:52.582Z,1.25
2023-04-18T10:59:56.876Z,1.50
2023-04-18T11:01:01.021Z,2.00
2023-04-18T11:02:05.494Z,2.00
2023-04-18T11:03:16.390Z,2.00
2023-04-18T11:04:21.836Z,2.00
2023-04-18T11:05:26.200Z,1.75
2023-04-18T11:06:30.554Z,2.50
2023-04-18T11:07:36.483Z,3.25
2023-04-18T11:08:41.089Z,4.25
2023-04-18T11:09:45.542Z,2.25
2023-04-18T11:10:49.787Z,2.00
2023-04-18T11:11:55.016Z,1.50
2023-04-18T11:12:59.025Z,1.75
2023-04-18T11:14:05.513Z,2.00
2023-04-18T11:15:10.098Z,1.50
2023-04-18T11:16:14.642Z,2.50
2023-04-18T11:17:22.845Z,1.50
2023-04-18T11:18:27.019Z,1.50
2023-04-18T11:19:31.316Z,2.00
2023-04-18T11:20:35.218Z,2.75
2023-04-18T11:21:45.261Z,3.00
2023-04-18T11:22:49.624Z,2.50
2023-04-18T11:23:54.084Z,3.50
2023-04-18T11:24:58.422Z,3.75
2023-04-18T11:26:02.905Z,3.00
2023-04-18T11:27:07.012Z,1.75
2023-04-18T11:28:11.630Z,2.00
2023-04-18T11:29:15.927Z,2.25
2023-04-18T11:30:21.161Z,1.50
2023-04-18T11:31:25.349Z,2.25
2023-04-18T11:32:29.749Z,1.50
2023-04-18T11:33:34.198Z,2.00
2023-04-18T11:34:42.334Z,1.00
2023-04-18T11:35:46.712Z,1.75
2023-04-18T11:36:50.797Z,2.50
2023-04-18T11:37:54.904Z,2.00
2023-04-18T11:38:59.003Z,1.50
2023-04-18T11:40:03.620Z,0.50
2023-04-18T11:41:08.336Z,1.50
2023-04-18T11:42:12.760Z,1.75
2023-04-18T11:43:16.957Z,1.00
2023-04-18T11:44:21.575Z,1.50
2023-04-18T11:45:26.091Z,1.75
2023-04-18T11:46:30.663Z,3.25
2023-04-18T11:47:34.932Z,4.50
2023-04-18T11:48:39.018Z,1.00
2023-04-18T11:49:42.752Z,2.00
2023-04-18T11:50:50.303Z,1.50
2023-04-18T11:51:54.610Z,0.50
2023-04-18T11:52:59.128Z,1.00
2023-04-18T11:54:05.257Z,1.25
2023-04-18T11:55:08.961Z,2.25
2023-04-18T11:56:13.170Z,2.50
2023-04-18T11:58:35.065Z,1.50
2023-04-18T11:59:39.404Z,1.50
2023-04-18T12:00:43.318Z,2.00
2023-04-18T12:01:47.882Z,1.75
2023-04-18T12:02:52.784Z,2.25
2023-04-18T12:03:57.156Z,2.00
2023-04-18T12:05:01.812Z,1.50
2023-04-18T12:06:06.789Z,2.00
2023-04-18T12:07:10.996Z,1.00
2023-04-18T12:08:15.198Z,1.25
2023-04-18T12:09:19.708Z,2.00
2023-04-18T12:10:24.037Z,2.00
2023-04-18T12:11:28.529Z,1.50
2023-04-18T12:12:33.040Z,1.25
2023-04-18T12:13:37.043Z,1.00
2023-04-18T12:14:41.560Z,0.50
2023-04-18T12:15:45.697Z,1.00
2023-04-18T12:16:49.858Z,1.25
2023-04-18T12:17:54.224Z,1.00
2023-04-18T12:18:58.374Z,1.50
2023-04-18T12:20:02.622Z,1.50
2023-04-18T12:21:06.930Z,1.25
2023-04-18T12:22:11.300Z,2.00
2023-04-18T12:23:17.648Z,1.00
2023-04-18T12:24:22.595Z,1.00
2023-04-18T12:25:27.614Z,1.50
2023-04-18T12:26:33.036Z,1.00
2023-04-18T12:27:37.555Z,1.00
2023-04-18T12:28:41.655Z,1.00
2023-04-18T12:29:45.657Z,1.50
2023-04-18T12:30:49.976Z,2.00
2023-04-18T12:31:54.656Z,1.00
2023-04-18T12:32:58.883Z,1.50
2023-04-18T12:34:03.090Z,1.50
2023-04-18T12:35:07.195Z,1.75
2023-04-18T12:36:11.609Z,2.00
2023-04-18T12:37:15.818Z,2.00
2023-04-18T12:38:20.127Z,2.00
2023-04-18T12:39:24.327Z,2.00
2023-04-18T12:40:28.231Z,1.50
2023-04-18T12:41:32.338Z,0.50
2023-04-18T12:42:36.532Z,2.00
2023-04-18T12:43:41.046Z,1.50
2023-04-18T12:44:47.896Z,1.00
2023-04-18T12:45:51.211Z,1.00
2023-04-18T12:46:55.354Z,1.75
2023-04-18T12:47:59.261Z,1.00
2023-04-18T12:49:03.221Z,2.00
2023-04-18T12:50:08.084Z,2.50
2023-04-18T12:51:12.031Z,2.00
2023-04-18T12:52:16.233Z,1.50
2023-04-18T12:53:20.229Z,1.00
2023-04-18T12:54:24.233Z,0.25
2023-04-18T12:55:28.443Z,1.00
2023-04-18T12:56:34.812Z,1.75
2023-04-18T12:57:39.918Z,2.50
2023-04-18T12:58:44.125Z,1.50
2023-04-18T12:59:48.451Z,1.25
2023-04-18T13:00:52.457Z,1.00
2023-04-18T13:01:56.871Z,1.50
2023-04-18T13:03:01.413Z,1.50
2023-04-18T13:04:12.564Z,2.00
2023-04-18T13:05:11.218Z,1.00
2023-04-18T13:06:15.122Z,2.00
2023-04-18T13:07:19.428Z,1.25
2023-04-18T13:08:23.633Z,2.00
2023-04-18T13:09:29.368Z,1.00
2023-04-18T13:10:33.872Z,1.00
2023-04-18T13:11:38.080Z,0.75
2023-04-18T13:12:42.192Z,1.50
2023-04-18T13:13:46.204Z,1.50
2023-04-18T13:14:57.182Z,1.50
2023-04-18T13:16:01.926Z,1.50
2023-04-18T13:17:06.335Z,1.25
2023-04-18T13:18:10.585Z,1.50
2023-04-18T13:19:16.337Z,1.50
2023-04-18T13:20:20.639Z,1.50
2023-04-18T13:21:24.742Z,1.00
2023-04-18T13:22:28.765Z,1.00
2023-04-18T13:23:32.849Z,1.00
2023-04-18T13:24:37.058Z,0.75
2023-04-18T13:25:41.272Z,1.25
2023-04-18T13:26:45.573Z,2.00
2023-04-18T13:27:49.881Z,0.50
2023-04-18T13:28:53.876Z,1.00
2023-04-18T13:29:58.097Z,2.00
2023-04-18T13:31:02.097Z,1.50
2023-04-18T13:32:06.219Z,2.00
2023-04-18T13:33:10.300Z,2.00
2023-04-18T13:34:14.241Z,1.25
2023-04-18T13:35:18.399Z,1.50
2023-04-18T13:36:22.492Z,1.00
2023-04-18T13:37:27.530Z,1.50
2023-04-18T13:38:31.731Z,4.00
2023-04-18T13:39:35.565Z,17.75
2023-04-18T13:40:39.930Z,21.25
2023-04-18T13:41:44.359Z,8.50
2023-04-18T13:42:48.549Z,6.00
2023-04-18T13:43:52.677Z,6.50
2023-04-18T13:44:56.865Z,7.00
2023-04-18T13:46:01.949Z,7.50
2023-04-18T13:47:05.881Z,7.50
2023-04-18T13:48:10.280Z,8.75
2023-04-18T13:49:14.966Z,7.50
2023-04-18T13:50:19.527Z,9.50
2023-04-18T13:51:23.732Z,10.00
2023-04-18T13:52:28.267Z,7.50
2023-04-18T13:53:32.359Z,3.50
2023-04-18T13:54:36.558Z,2.50
2023-04-18T13:55:40.453Z,3.50
2023-04-18T13:56:44.659Z,2.50
2023-04-18T13:57:48.976Z,2.50
2023-04-18T13:58:53.481Z,2.50
2023-04-18T13:59:57.791Z,2.00
2023-04-18T14:01:02.445Z,2.00
2023-04-18T14:02:06.706Z,2.25
2023-04-18T14:03:11.213Z,2.00
2023-04-18T14:04:15.821Z,2.00
2023-04-18T14:05:20.176Z,2.50
2023-04-18T14:06:24.150Z,1.50
2023-04-18T14:07:28.251Z,2.00
2023-04-18T14:08:32.262Z,2.50
2023-04-18T14:09:36.468Z,2.50
2023-04-18T14:10:40.561Z,2.50
2023-04-18T14:11:44.362Z,1.00
2023-04-18T14:12:48.372Z,2.00
2023-04-18T14:13:52.361Z,2.00
2023-04-18T14:14:56.108Z,0.75
2023-04-18T14:16:00.409Z,1.50
2023-04-18T14:17:04.873Z,2.00
2023-04-18T14:18:08.917Z,2.00
2023-04-18T14:19:13.278Z,1.75
2023-04-18T14:20:17.666Z,2.00
2023-04-18T14:21:21.700Z,2.00